Time;durP1;ratioP1;P1;durP2;ratioP2;P2;SDS_P1;SDS_P2;PMS_P1;PMS_P2;Temp;Humidity;BMP_temperature;BMP_pressure;BME280_temperature;BME280_humidity;BME280_pressure;Samples;Min_cycle;Max_cycle;Signal;HPM_P1;HPM_P2
2023/12/12 00:01:20;;;;;;;17.10;8.65;;;;;;;4.96;73.51;93630.84;5064812;28;20100;-86
2023/12/12 00:03:46;;;;;;;16.27;8.32;;;;;;;4.98;73.09;93623.44;5066204;28;20033;-86
2023/12/12 00:06:11;;;;;;;16.13;8.43;;;;;;;5.01;72.26;93612.31;5065977;28;20244;-86
2023/12/12 00:08:37;;;;;;;16.20;8.18;;;;;;;5.01;72.33;93597.25;5066045;28;20200;-86
2023/12/12 00:11:05;;;;;;;17.30;8.15;;;;;;;5.07;72.49;93613.81;5065006;28;20223;-88
2023/12/12 00:13:30;;;;;;;18.98;7.82;;;;;;;5.07;72.33;93610.38;5065774;28;20254;-88
2023/12/12 00:15:56;;;;;;;24.48;7.78;;;;;;;5.06;72.18;93614.88;5065904;28;20080;-84
2023/12/12 00:18:21;;;;;;;14.60;7.47;;;;;;;5.05;71.83;93623.06;5065850;28;20311;-84
2023/12/12 00:20:47;;;;;;;21.23;8.70;;;;;;;4.84;72.64;93612.75;5065830;28;20051;-85
2023/12/12 00:23:12;;;;;;;22.38;8.40;;;;;;;4.76;72.97;93593.06;5065701;28;20074;-84
2023/12/12 00:25:38;;;;;;;17.17;8.05;;;;;;;4.77;73.71;93609.69;5065642;28;20311;-84
2023/12/12 00:28:03;;;;;;;21.30;9.18;;;;;;;4.80;73.96;93620.47;5065561;28;20043;-83
2023/12/12 00:30:29;;;;;;;17.80;8.07;;;;;;;4.81;74.13;93637.09;5065722;28;20021;-83
2023/12/12 00:32:54;;;;;;;15.35;7.97;;;;;;;4.85;74.02;93622.28;5065504;28;20331;-84
2023/12/12 00:35:20;;;;;;;17.60;7.80;;;;;;;4.89;73.98;93619.84;5064968;28;20201;-83
2023/12/12 00:37:45;;;;;;;20.85;8.90;;;;;;;4.96;73.86;93622.94;5065085;28;20094;-83
2023/12/12 00:40:11;;;;;;;27.52;9.32;;;;;;;4.97;73.24;93627.94;5065114;28;20071;-83
2023/12/12 00:42:36;;;;;;;19.20;8.85;;;;;;;4.97;73.14;93625.28;5065552;28;20036;-85
2023/12/12 00:45:02;;;;;;;17.45;8.88;;;;;;;4.90;73.39;93653.09;5064973;28;20092;-85
2023/12/12 00:47:29;;;;;;;16.15;8.68;;;;;;;4.80;73.34;93648.72;5064948;28;20037;-85
2023/12/12 00:49:55;;;;;;;21.17;9.70;;;;;;;4.71;73.91;93643.28;5064050;28;20103;-84
2023/12/12 00:52:20;;;;;;;23.42;10.93;;;;;;;4.61;74.33;93612.50;5065072;28;20029;-83
2023/12/12 00:54:45;;;;;;;21.40;10.32;;;;;;;4.60;74.41;93610.16;5064978;28;20021;-84
2023/12/12 00:57:11;;;;;;;24.40;10.85;;;;;;;4.58;74.24;93623.63;5064913;28;20239;-83
2023/12/12 00:59:36;;;;;;;24.42;11.05;;;;;;;4.61;74.59;93636.25;5065345;28;20252;-84
2023/12/12 01:02:02;;;;;;;23.45;11.60;;;;;;;4.56;74.31;93628.41;5065245;28;20181;-85
2023/12/12 01:04:33;;;;;;;27.23;11.18;;;;;;;4.43;74.80;93623.78;5065080;28;20096;-84
2023/12/12 01:06:59;;;;;;;23.42;11.18;;;;;;;4.46;74.93;93625.06;5064902;28;20067;-84
2023/12/12 01:09:24;;;;;;;26.08;11.15;;;;;;;4.49;74.91;93632.44;5065023;28;20032;-85
2023/12/12 01:11:50;;;;;;;23.02;11.45;;;;;;;4.50;74.49;93644.56;5064863;28;20028;-85
2023/12/12 01:14:15;;;;;;;24.67;11.68;;;;;;;4.40;74.87;93646.25;5064519;28;20025;-85
2023/12/12 01:16:41;;;;;;;27.58;10.60;;;;;;;4.43;74.95;93660.72;5064486;28;20089;-84
2023/12/12 01:19:06;;;;;;;23.48;11.02;;;;;;;4.25;75.64;93659.56;5064522;28;20016;-85
2023/12/12 01:21:32;;;;;;;25.60;11.55;;;;;;;4.09;76.98;93658.94;5064211;28;20138;-84
2023/12/12 01:23:57;;;;;;;23.38;10.85;;;;;;;4.04;77.26;93643.16;5064577;28;20025;-83
2023/12/12 01:26:23;;;;;;;22.20;10.52;;;;;;;4.05;77.62;93638.66;5064980;28;20108;-84
2023/12/12 01:28:49;;;;;;;22.90;9.98;;;;;;;4.11;77.69;93648.09;5065569;28;20028;-86
2023/12/12 01:31:16;;;;;;;25.60;9.77;;;;;;;4.08;77.52;93646.81;5064978;28;20032;-85
2023/12/12 01:33:42;;;;;;;21.15;9.10;;;;;;;4.16;77.47;93666.53;5063638;28;20048;-85
2023/12/12 01:36:08;;;;;;;22.45;8.77;;;;;;;4.22;77.11;93655.66;5065318;28;20035;-85
2023/12/12 01:38:34;;;;;;;23.15;8.55;;;;;;;4.31;77.20;93653.19;5065234;28;20025;-85
2023/12/12 01:41:00;;;;;;;19.48;9.60;;;;;;;4.41;76.70;93641.75;5065939;28;20025;-85
2023/12/12 01:43:27;;;;;;;23.45;9.45;;;;;;;4.48;75.99;93636.13;5064959;28;20033;-85
2023/12/12 01:45:55;;;;;;;21.17;9.27;;;;;;;4.49;75.73;93630.56;5065079;28;20040;-85
2023/12/12 01:48:21;;;;;;;27.98;11.13;;;;;;;4.49;75.90;93622.66;5064545;28;20342;-86
2023/12/12 01:50:48;;;;;;;26.05;10.68;;;;;;;4.51;75.94;93609.97;5064207;28;20020;-86
2023/12/12 01:53:15;;;;;;;23.20;11.00;;;;;;;4.54;76.02;93608.63;5064002;28;20095;-86
2023/12/12 01:55:41;;;;;;;26.83;10.93;;;;;;;4.58;75.93;93614.91;5062081;28;20028;-85
2023/12/12 01:58:07;;;;;;;29.25;11.52;;;;;;;4.54;76.21;93608.63;5061784;28;20136;-85
2023/12/12 02:00:32;;;;;;;25.25;11.48;;;;;;;4.58;76.39;93615.72;5061662;28;20033;-85
2023/12/12 02:02:58;;;;;;;34.08;13.60;;;;;;;4.60;76.17;93618.84;5063128;28;20029;-85
2023/12/12 02:05:27;;;;;;;32.90;12.63;;;;;;;4.67;75.18;93636.22;5062827;28;20330;-84
2023/12/12 02:07:54;;;;;;;39.05;14.05;;;;;;;4.65;75.55;93630.44;5063060;28;20327;-85
2023/12/12 02:10:19;;;;;;;30.13;14.63;;;;;;;4.67;75.66;93649.41;5062856;28;20036;-85
2023/12/12 02:12:45;;;;;;;26.20;14.07;;;;;;;4.70;75.69;93662.03;5063051;28;20391;-84
2023/12/12 02:15:10;;;;;;;30.40;14.30;;;;;;;4.71;75.59;93658.34;5063027;28;20300;-85
2023/12/12 02:17:36;;;;;;;32.58;14.90;;;;;;;4.73;75.67;93649.06;5063130;28;20028;-87
2023/12/12 02:20:01;;;;;;;39.58;16.70;;;;;;;4.78;75.76;93643.75;5062893;28;20334;-87
2023/12/12 02:22:27;;;;;;;42.00;18.15;;;;;;;4.81;75.87;93623.91;5062622;28;20235;-87
2023/12/12 02:24:53;;;;;;;46.35;19.15;;;;;;;4.82;75.74;93626.28;5063673;28;20139;-87
2023/12/12 02:27:19;;;;;;;37.92;18.05;;;;;;;4.84;75.71;93649.72;5063778;28;20112;-87
2023/12/12 02:29:45;;;;;;;40.70;17.80;;;;;;;4.74;75.39;93649.84;5063622;28;20031;-87
2023/12/12 02:32:10;;;;;;;41.17;18.85;;;;;;;4.69;75.73;93647.28;5063901;28;20021;-87
2023/12/12 02:34:36;;;;;;;50.22;19.85;;;;;;;4.61;76.19;93646.03;5063722;28;20024;-87
2023/12/12 02:37:01;;;;;;;45.20;20.55;;;;;;;4.56;75.92;93660.09;5063869;28;20084;-87
2023/12/12 02:39:27;;;;;;;47.00;19.83;;;;;;;4.50;76.24;93660.38;5063699;28;20029;-88
2023/12/12 02:41:52;;;;;;;43.72;21.13;;;;;;;4.43;76.53;93676.56;5063378;28;20242;-86
2023/12/12 02:44:18;;;;;;;44.80;21.60;;;;;;;4.41;76.84;93679.47;5062978;28;20033;-86
2023/12/12 02:46:43;;;;;;;38.00;19.15;;;;;;;4.40;77.15;93683.19;5063630;28;20041;-88
2023/12/12 02:49:09;;;;;;;48.97;20.02;;;;;;;4.42;77.12;93704.03;5063966;28;20025;-87
2023/12/12 02:51:35;;;;;;;40.20;19.65;;;;;;;4.40;76.76;93687.69;5064201;28;20013;-87
2023/12/12 02:54:00;;;;;;;45.90;19.45;;;;;;;4.33;77.39;93692.50;5062072;28;20035;-87
2023/12/12 02:56:31;;;;;;;43.45;20.60;;;;;;;4.27;77.78;93701.50;5061587;28;20020;-83
2023/12/12 02:58:56;;;;;;;40.58;20.50;;;;;;;4.12;77.99;93697.94;5063130;28;20087;-85
2023/12/12 03:01:22;;;;;;;45.70;22.27;;;;;;;3.91;78.89;93676.22;5063064;28;20021;-86
2023/12/12 03:03:47;;;;;;;41.60;20.48;;;;;;;3.74;79.96;93650.22;5063139;28;20091;-85
2023/12/12 03:06:13;;;;;;;50.10;21.05;;;;;;;3.66;80.75;93658.72;5063395;28;20021;-85
2023/12/12 03:08:38;;;;;;;43.92;21.15;;;;;;;3.67;81.10;93660.31;5063044;28;20028;-85
2023/12/12 03:11:04;;;;;;;46.58;20.33;;;;;;;3.70;81.24;93643.94;5065507;28;20311;-86
2023/12/12 03:13:29;;;;;;;43.78;20.15;;;;;;;3.74;81.52;93629.13;5066751;28;20370;-84
2023/12/12 03:15:55;;;;;;;54.60;22.70;;;;;;;3.84;81.24;93624.84;5067254;28;20075;-84
2023/12/12 03:18:20;;;;;;;56.17;24.58;;;;;;;3.91;81.28;93628.75;5066769;28;20257;-84
2023/12/12 03:20:45;;;;;;;56.13;21.45;;;;;;;3.95;80.90;93626.34;5066629;28;20032;-84
2023/12/12 03:23:11;;;;;;;56.80;22.80;;;;;;;3.97;80.52;93626.88;5066678;28;20025;-84
2023/12/12 03:25:37;;;;;;;46.67;20.77;;;;;;;3.97;80.20;93611.03;5068602;28;20021;-85
2023/12/12 03:28:02;;;;;;;55.17;21.45;;;;;;;3.94;80.36;93624.78;5066144;28;20215;-85
2023/12/12 03:30:28;;;;;;;52.08;21.98;;;;;;;3.79;80.94;93621.19;5066870;28;20017;-85
2023/12/12 03:32:53;;;;;;;48.33;20.52;;;;;;;3.84;80.89;93640.69;5066469;28;20063;-85
2023/12/12 03:35:19;;;;;;;44.38;20.80;;;;;;;3.87;81.05;93640.09;5066588;28;20028;-85
2023/12/12 03:37:44;;;;;;;48.40;22.08;;;;;;;3.94;80.95;93630.03;5066537;28;20027;-85
2023/12/12 03:40:10;;;;;;;42.17;18.95;;;;;;;3.96;80.89;93630.56;5067718;28;20027;-85
2023/12/12 03:42:36;;;;;;;38.83;20.02;;;;;;;3.98;80.52;93628.44;5066869;28;20024;-84
2023/12/12 03:45:01;;;;;;;36.90;18.05;;;;;;;4.01;80.58;93623.41;5066350;28;20020;-84
2023/12/12 03:47:27;;;;;;;38.88;16.17;;;;;;;4.03;80.22;93617.84;5065973;28;20041;-85
2023/12/12 03:49:52;;;;;;;33.72;16.25;;;;;;;4.05;80.32;93628.91;5066884;28;20319;-85
2023/12/12 03:52:18;;;;;;;32.13;16.33;;;;;;;4.07;80.12;93633.88;5067000;28;20021;-86
2023/12/12 03:54:43;;;;;;;33.60;16.92;;;;;;;4.12;79.82;93645.19;5067075;28;20032;-85
2023/12/12 03:57:08;;;;;;;28.38;13.55;;;;;;;4.18;79.51;93638.78;5067477;28;20277;-86
2023/12/12 03:59:34;;;;;;;31.48;14.13;;;;;;;4.19;79.21;93645.66;5067866;28;20024;-88
2023/12/12 04:01:59;;;;;;;23.92;14.05;;;;;;;4.18;79.19;93646.72;5068118;28;20024;-87
2023/12/12 04:04:26;;;;;;;32.13;14.00;;;;;;;4.20;79.03;93641.94;5067087;28;20031;-87
2023/12/12 04:06:51;;;;;;;30.52;14.38;;;;;;;4.24;78.51;93628.22;5066610;28;20095;-88
2023/12/12 04:09:16;;;;;;;26.75;13.70;;;;;;;4.25;78.34;93642.97;5066332;28;20056;-88
2023/12/12 04:11:42;;;;;;;26.73;13.25;;;;;;;4.27;77.91;93659.31;5066299;28;20025;-85
2023/12/12 04:14:08;;;;;;;30.10;12.85;;;;;;;4.29;77.84;93665.09;5066193;28;20227;-84
2023/12/12 04:16:33;;;;;;;29.00;13.15;;;;;;;4.32;77.62;93669.81;5066102;28;20220;-85
2023/12/12 04:18:59;;;;;;;26.85;14.18;;;;;;;4.31;77.55;93666.38;5065908;28;20043;-82
2023/12/12 04:21:24;;;;;;;32.25;13.13;;;;;;;4.30;77.51;93685.16;5065484;28;20028;-85
2023/12/12 04:23:49;;;;;;;32.72;13.07;;;;;;;4.33;77.49;93687.22;5065676;28;20055;-84
2023/12/12 04:26:15;;;;;;;23.40;11.63;;;;;;;4.33;77.07;93689.84;5065238;28;20106;-85
2023/12/12 04:28:40;;;;;;;24.50;11.25;;;;;;;4.33;77.01;93687.22;5065962;28;20025;-84
2023/12/12 04:31:06;;;;;;;24.98;10.90;;;;;;;4.32;77.42;93686.44;5065759;28;20338;-88
2023/12/12 04:33:31;;;;;;;19.95;9.05;;;;;;;4.32;77.25;93701.47;5064947;28;20027;-88
2023/12/12 04:35:57;;;;;;;29.30;10.43;;;;;;;4.36;77.24;93682.16;5065853;28;20025;-88
2023/12/12 04:38:22;;;;;;;21.65;9.57;;;;;;;4.41;76.70;93690.03;5066258;28;20192;-88
2023/12/12 04:40:48;;;;;;;22.45;10.80;;;;;;;4.42;76.41;93706.66;5066044;28;20377;-88
2023/12/12 04:43:13;;;;;;;19.83;10.20;;;;;;;4.44;76.36;93693.97;5065501;28;20048;-88
2023/12/12 04:45:39;;;;;;;24.65;10.35;;;;;;;4.49;76.24;93696.56;5064266;28;20021;-88
2023/12/12 04:48:05;;;;;;;24.08;10.65;;;;;;;4.49;76.22;93691.28;5065829;28;20029;-87
2023/12/12 04:50:30;;;;;;;21.92;10.68;;;;;;;4.48;76.31;93687.09;5065390;28;20066;-86
2023/12/12 04:52:56;;;;;;;21.48;11.32;;;;;;;4.50;76.24;93700.78;5065424;28;20032;-86
2023/12/12 04:55:21;;;;;;;25.63;12.18;;;;;;;4.51;76.37;93680.44;5065378;28;20049;-86
2023/12/12 04:57:47;;;;;;;26.20;11.45;;;;;;;4.49;76.07;93704.47;5065421;28;20060;-86
2023/12/12 05:00:13;;;;;;;26.23;12.40;;;;;;;4.47;75.51;93703.97;5065377;28;20033;-86
2023/12/12 05:02:41;;;;;;;25.38;11.65;;;;;;;4.46;76.12;93699.78;5063944;28;20029;-86
2023/12/12 05:05:07;;;;;;;31.88;11.27;;;;;;;4.49;76.01;93707.13;5063831;28;20025;-85
2023/12/12 05:07:32;;;;;;;29.02;12.43;;;;;;;4.47;75.94;93724.31;5064271;28;20070;-82
2023/12/12 05:09:58;;;;;;;29.05;12.50;;;;;;;4.43;75.92;93709.00;5064328;28;20075;-85
2023/12/12 05:12:24;;;;;;;23.95;12.15;;;;;;;4.38;76.32;93726.75;5064960;28;20032;-82
2023/12/12 05:14:50;;;;;;;25.13;11.52;;;;;;;4.36;76.52;93734.16;5064967;28;20327;-82
2023/12/12 05:17:15;;;;;;;27.10;12.40;;;;;;;4.43;76.62;93731.97;5065241;28;20067;-86
2023/12/12 05:19:41;;;;;;;20.08;10.70;;;;;;;4.47;76.42;93722.44;5064933;28;20097;-86
2023/12/12 05:22:06;;;;;;;23.73;11.32;;;;;;;4.53;76.47;93760.16;5064708;28;20025;-87
2023/12/12 05:24:32;;;;;;;19.30;10.65;;;;;;;4.58;75.76;93752.16;5064880;28;20024;-86
2023/12/12 05:26:57;;;;;;;22.30;10.40;;;;;;;4.56;76.21;93741.09;5065432;28;20033;-86
2023/12/12 05:29:22;;;;;;;24.52;11.45;;;;;;;4.58;76.38;93747.69;5063763;28;20036;-86
2023/12/12 05:31:48;;;;;;;24.35;11.63;;;;;;;4.62;76.17;93737.38;5065132;28;20048;-84
2023/12/12 05:34:13;;;;;;;30.88;12.10;;;;;;;4.59;76.08;93746.63;5063070;28;20082;-85
2023/12/12 05:36:39;;;;;;;27.35;12.68;;;;;;;4.61;76.13;93723.38;5064258;28;20024;-85
2023/12/12 05:39:04;;;;;;;19.52;10.68;;;;;;;4.67;76.08;93739.19;5065093;28;20327;-87
2023/12/12 05:41:30;;;;;;;24.60;10.70;;;;;;;4.71;75.94;93719.06;5062972;28;20192;-86
2023/12/12 05:43:57;;;;;;;29.52;13.05;;;;;;;4.74;75.89;93718.50;5064460;28;20108;-85
2023/12/12 05:46:24;;;;;;;21.90;11.90;;;;;;;4.81;75.73;93716.31;5064191;28;20020;-86
2023/12/12 05:48:49;;;;;;;21.95;12.23;;;;;;;4.88;75.84;93729.97;5064028;28;20056;-86
2023/12/12 05:51:15;;;;;;;25.75;12.77;;;;;;;4.84;75.43;93739.53;5064260;28;20033;-87
2023/12/12 05:53:41;;;;;;;27.27;13.23;;;;;;;4.87;75.99;93738.19;5063483;28;20025;-86
2023/12/12 05:56:07;;;;;;;26.50;11.80;;;;;;;4.90;75.35;93754.25;5063856;28;20059;-87
2023/12/12 05:58:33;;;;;;;30.77;12.50;;;;;;;4.89;75.16;93742.13;5063944;28;20033;-87
2023/12/12 06:01:02;;;;;;;27.17;12.52;;;;;;;4.91;75.93;93758.47;5064734;28;20031;-85
2023/12/12 06:03:28;;;;;;;22.08;11.23;;;;;;;4.95;75.34;93771.91;5065222;28;20037;-85
2023/12/12 06:05:53;;;;;;;26.90;12.70;;;;;;;4.90;75.05;93756.88;5066840;28;20211;-89
2023/12/12 06:08:19;;;;;;;29.95;13.52;;;;;;;4.93;75.52;93764.25;5068504;28;20028;-90
2023/12/12 06:10:44;;;;;;;27.42;13.65;;;;;;;4.93;75.73;93752.91;5068285;28;20223;-88
2023/12/12 06:13:10;;;;;;;25.95;12.73;;;;;;;4.95;75.41;93756.06;5065572;28;20040;-86
2023/12/12 06:15:35;;;;;;;42.25;14.93;;;;;;;4.99;75.53;93744.66;5064111;28;20091;-87
2023/12/12 06:18:01;;;;;;;28.65;14.85;;;;;;;5.08;75.78;93744.81;5063867;28;20327;-87
2023/12/12 06:20:26;;;;;;;32.22;15.93;;;;;;;5.19;76.03;93743.66;5063718;28;20029;-85
2023/12/12 06:22:52;;;;;;;29.63;12.82;;;;;;;5.22;75.92;93739.66;5064842;28;20059;-86
2023/12/12 06:25:17;;;;;;;33.35;12.75;;;;;;;5.28;75.68;93733.25;5064235;28;20025;-90
2023/12/12 06:27:43;;;;;;;30.30;14.10;;;;;;;5.36;75.11;93748.47;5064666;28;20029;-89
2023/12/12 06:30:11;;;;;;;28.58;12.70;;;;;;;5.36;73.86;93727.31;5066408;28;20045;-90
2023/12/12 06:32:37;;;;;;;26.15;12.32;;;;;;;5.33;73.64;93714.69;5065508;28;20021;-91
2023/12/12 06:35:04;;;;;;;23.38;11.15;;;;;;;5.31;73.98;93711.53;5071703;28;20024;-94
2023/12/12 06:37:32;;;;;;;26.90;11.38;;;;;;;5.29;73.97;93711.03;5072906;28;20051;-92
2023/12/12 06:40:03;;;;;;;33.13;13.40;;;;;;;5.33;74.16;93714.69;5074723;28;20097;-89
2023/12/12 06:42:33;;;;;;;29.38;13.63;;;;;;;5.37;74.22;93710.41;5068576;28;20059;-90
2023/12/12 06:44:58;;;;;;;32.67;12.68;;;;;;;5.40;74.17;93736.25;5070664;28;20032;-91
2023/12/12 06:47:25;;;;;;;27.98;12.93;;;;;;;5.45;73.98;93737.28;5066790;28;20029;-89
2023/12/12 06:49:51;;;;;;;27.92;13.75;;;;;;;5.45;73.84;93755.78;5066447;28;20104;-81
2023/12/12 06:52:16;;;;;;;41.05;15.85;;;;;;;5.33;73.67;93759.63;5066220;28;20188;-84
2023/12/12 06:54:42;;;;;;;48.55;17.05;;;;;;;5.37;73.67;93762.47;5067278;28;20312;-84
2023/12/12 06:57:07;;;;;;;37.50;16.15;;;;;;;5.36;74.19;93772.25;5065995;28;20044;-84
2023/12/12 06:59:32;;;;;;;37.08;15.13;;;;;;;5.35;74.27;93778.63;5066338;28;20123;-84
2023/12/12 07:01:58;;;;;;;46.53;16.70;;;;;;;5.35;74.18;93781.28;5067252;28;20147;-84
2023/12/12 07:04:23;;;;;;;45.05;17.77;;;;;;;5.38;74.15;93783.34;5066974;28;20040;-84
2023/12/12 07:06:49;;;;;;;46.95;19.48;;;;;;;5.46;73.55;93781.16;5065710;28;20100;-84
2023/12/12 07:09:14;;;;;;;46.50;16.55;;;;;;;5.51;73.38;93795.06;5067088;28;20036;-84
2023/12/12 07:11:41;;;;;;;31.55;14.55;;;;;;;5.54;73.46;93793.75;5064751;28;20032;-85
2023/12/12 07:14:07;;;;;;;38.22;14.35;;;;;;;5.55;73.38;93801.38;5066883;28;20301;-85
2023/12/12 07:16:32;;;;;;;25.58;12.05;;;;;;;5.61;72.50;93794.19;5066938;28;20017;-85
2023/12/12 07:18:58;;;;;;;25.70;12.50;;;;;;;5.58;71.65;93806.13;5066691;28;20315;-84
2023/12/12 07:21:23;;;;;;;24.08;11.38;;;;;;;5.64;71.84;93798.91;5067051;28;20215;-84
2023/12/12 07:23:51;;;;;;;26.38;11.57;;;;;;;5.65;71.92;93794.41;5067068;28;20020;-84
2023/12/12 07:26:18;;;;;;;26.23;11.10;;;;;;;5.65;72.00;93797.81;5065507;28;20249;-85
2023/12/12 07:28:43;;;;;;;26.58;12.57;;;;;;;5.77;71.86;93792.91;5066500;28;20032;-84
2023/12/12 07:31:10;;;;;;;23.33;10.95;;;;;;;5.90;71.13;93780.06;5064974;28;20024;-84
2023/12/12 07:33:36;;;;;;;28.73;10.93;;;;;;;5.97;70.55;93785.81;5066749;28;20021;-85
2023/12/12 07:36:02;;;;;;;34.40;11.65;;;;;;;6.02;70.54;93777.81;5065439;28;20044;-85
2023/12/12 07:38:27;;;;;;;30.70;11.63;;;;;;;6.03;70.23;93790.75;5066202;28;20339;-85
2023/12/12 07:40:53;;;;;;;34.15;12.48;;;;;;;6.12;70.06;93790.88;5066458;28;20017;-85
2023/12/12 07:43:19;;;;;;;27.05;12.63;;;;;;;6.17;69.74;93776.81;5066258;28;20016;-85
2023/12/12 07:45:44;;;;;;;36.95;13.15;;;;;;;6.23;69.77;93767.72;5065968;28;20029;-85
2023/12/12 07:48:10;;;;;;;32.60;13.27;;;;;;;6.32;70.12;93768.63;5064992;28;20338;-85
2023/12/12 07:50:36;;;;;;;37.83;15.02;;;;;;;6.38;69.80;93780.72;5064921;28;20100;-85
2023/12/12 07:53:04;;;;;;;35.83;13.73;;;;;;;6.46;70.10;93784.59;5064925;28;20212;-85
2023/12/12 07:55:31;;;;;;;40.22;14.52;;;;;;;6.50;70.03;93801.47;5064761;28;20028;-83
2023/12/12 07:57:57;;;;;;;32.55;14.38;;;;;;;6.59;69.75;93801.59;5064325;28;20112;-84
2023/12/12 08:00:22;;;;;;;30.58;13.63;;;;;;;6.59;69.72;93796.28;5065868;28;20029;-84
2023/12/12 08:02:48;;;;;;;37.03;13.60;;;;;;;6.73;69.58;93796.34;5066072;28;20025;-84
2023/12/12 08:05:13;;;;;;;30.85;15.10;;;;;;;6.89;69.55;93794.22;5065865;28;20047;-84
2023/12/12 08:07:38;;;;;;;48.78;15.40;;;;;;;7.06;69.40;93794.44;5065591;28;20370;-83
2023/12/12 08:10:06;;;;;;;32.55;14.05;;;;;;;7.20;68.58;93786.53;5065745;28;20080;-84
2023/12/12 08:12:31;;;;;;;36.50;13.10;;;;;;;7.32;68.55;93780.75;5065897;28;20028;-84
2023/12/12 08:14:57;;;;;;;30.23;14.02;;;;;;;7.45;68.00;93777.31;5065362;28;20288;-84
2023/12/12 08:17:22;;;;;;;35.08;13.60;;;;;;;7.55;67.62;93777.13;5064021;28;20020;-83
2023/12/12 08:19:48;;;;;;;37.63;13.75;;;;;;;7.62;67.55;93780.16;5065513;28;20029;-84
2023/12/12 08:22:13;;;;;;;39.28;13.05;;;;;;;7.71;67.35;93782.88;5065785;28;20024;-83
2023/12/12 08:24:39;;;;;;;39.15;13.95;;;;;;;7.63;67.21;93775.63;5065846;28;20331;-83
2023/12/12 08:27:04;;;;;;;40.28;14.23;;;;;;;7.74;66.69;93770.91;5065901;28;20045;-82
2023/12/12 08:29:30;;;;;;;35.25;14.15;;;;;;;7.81;66.57;93772.06;5066675;28;20036;-84
2023/12/12 08:31:55;;;;;;;38.20;13.95;;;;;;;7.95;66.54;93771.28;5065839;28;20024;-83
2023/12/12 08:34:20;;;;;;;32.20;14.13;;;;;;;8.07;66.09;93768.09;5066224;28;20248;-83
2023/12/12 08:36:46;;;;;;;40.85;13.68;;;;;;;8.16;66.10;93764.44;5065943;28;20035;-83
2023/12/12 08:39:13;;;;;;;34.20;13.02;;;;;;;8.27;65.95;93767.66;5066518;28;20032;-84
2023/12/12 08:41:38;;;;;;;37.72;13.35;;;;;;;8.35;65.36;93766.16;5066555;28;20033;-84
2023/12/12 08:44:04;;;;;;;31.42;12.40;;;;;;;8.42;64.75;93767.31;5065814;28;20020;-84
2023/12/12 08:46:29;;;;;;;45.40;14.98;;;;;;;8.50;64.91;93755.19;5064562;28;20220;-84
2023/12/12 08:48:56;;;;;;;39.72;14.65;;;;;;;8.57;65.14;93773.38;5065193;28;20319;-82
2023/12/12 08:51:23;;;;;;;32.63;12.95;;;;;;;8.67;65.00;93773.13;5065056;28;20017;-82
2023/12/12 08:53:49;;;;;;;32.08;13.20;;;;;;;8.74;64.99;93778.03;5063553;28;20027;-78
2023/12/12 08:56:16;;;;;;;35.97;13.68;;;;;;;8.76;64.34;93773.97;5064947;28;20023;-79
2023/12/12 08:58:47;;;;;;;31.35;13.40;;;;;;;8.78;63.82;93776.31;5064385;28;20239;-80
2023/12/12 09:01:13;;;;;;;34.00;13.38;;;;;;;8.86;63.80;93775.59;5064895;28;20036;-80
2023/12/12 09:03:39;;;;;;;40.53;12.85;;;;;;;8.96;64.77;93780.66;5064456;28;20027;-79
2023/12/12 09:06:05;;;;;;;41.80;15.80;;;;;;;9.02;64.52;93774.13;5064584;28;20025;-83
2023/12/12 09:08:31;;;;;;;39.05;13.90;;;;;;;9.10;64.11;93771.78;5064444;28;20052;-82
2023/12/12 09:10:58;;;;;;;34.35;13.02;;;;;;;9.20;63.09;93771.56;5064766;28;20035;-82
2023/12/12 09:13:24;;;;;;;33.47;13.20;;;;;;;9.26;63.23;93780.16;5064902;28;20306;-82
2023/12/12 09:15:50;;;;;;;37.05;13.05;;;;;;;9.33;62.56;93778.66;5064542;28;20092;-80
2023/12/12 09:18:16;;;;;;;36.83;13.27;;;;;;;9.42;62.43;93773.34;5064451;28;20262;-80
2023/12/12 09:20:41;;;;;;;37.70;11.60;;;;;;;9.48;61.47;93781.97;5063476;28;20024;-79
2023/12/12 09:23:06;;;;;;;41.72;12.48;;;;;;;9.42;61.41;93786.66;5064922;28;20017;-79
2023/12/12 09:25:32;;;;;;;37.30;11.48;;;;;;;9.50;61.42;93785.91;5064266;28;20021;-80
2023/12/12 09:27:57;;;;;;;31.50;11.65;;;;;;;9.57;61.13;93788.91;5064092;28;20044;-80
2023/12/12 09:30:23;;;;;;;24.23;10.93;;;;;;;9.60;61.11;93787.50;5064138;28;20040;-80
2023/12/12 09:32:48;;;;;;;28.27;12.48;;;;;;;9.56;60.97;93787.31;5064068;28;20021;-80
2023/12/12 09:35:16;;;;;;;38.95;12.13;;;;;;;9.60;60.77;93796.25;5063917;28;20031;-79
2023/12/12 09:37:41;;;;;;;30.63;10.48;;;;;;;9.66;60.12;93769.53;5064255;28;20029;-80
2023/12/12 09:40:09;;;;;;;40.65;10.65;;;;;;;9.71;60.29;93786.16;5063957;28;20033;-81
2023/12/12 09:42:35;;;;;;;27.77;10.30;;;;;;;9.79;60.12;93781.91;5063773;28;20021;-79
2023/12/12 09:45:04;;;;;;;17.50;7.35;;;;;;;9.72;59.14;93778.94;5063866;28;20092;-81
2023/12/12 09:47:30;;;;;;;8.57;3.05;;;;;;;9.52;60.48;93766.97;5062620;28;20021;-82
2023/12/12 09:49:58;;;;;;;4.18;1.60;;;;;;;9.59;60.52;93762.78;5063862;28;20025;-91
2023/12/12 09:52:26;;;;;;;3.28;1.05;;;;;;;9.54;60.47;93754.94;5063585;28;20319;-86
2023/12/12 09:54:52;;;;;;;10.57;2.75;;;;;;;9.59;60.64;93764.66;5066781;28;20028;-90
2023/12/12 09:57:21;;;;;;;14.20;2.30;;;;;;;9.63;59.78;93763.72;5065543;28;20056;-92
2023/12/12 09:59:46;;;;;;;6.22;1.42;;;;;;;9.53;60.11;93758.69;5065541;28;20029;-90
2023/12/12 10:02:18;;;;;;;2.58;0.80;;;;;;;9.66;60.12;93750.91;5066048;28;20047;-90
2023/12/12 10:04:44;;;;;;;3.00;0.73;;;;;;;9.71;59.45;93754.22;5066524;28;20100;-93
2023/12/12 10:07:16;;;;;;;1.27;0.68;;;;;;;9.71;58.45;93762.19;5066970;28;20096;-92
2023/12/12 10:09:41;;;;;;;3.30;0.97;;;;;;;9.74;59.21;93745.59;5064371;28;20029;-91
2023/12/12 10:12:07;;;;;;;3.03;0.90;;;;;;;9.69;59.25;93756.41;5064060;28;20028;-89
2023/12/12 10:14:40;;;;;;;6.13;0.80;;;;;;;9.43;58.18;93753.66;5066216;28;20024;-91
2023/12/12 10:17:10;;;;;;;4.35;0.80;;;;;;;9.42;58.33;93758.19;5066518;28;20013;-89
2023/12/12 10:19:36;;;;;;;2.65;1.10;;;;;;;9.50;58.67;93742.56;5063938;28;20248;-90
2023/12/12 10:22:06;;;;;;;3.63;1.55;;;;;;;9.53;58.35;93756.03;5063360;28;20020;-91
2023/12/12 10:24:32;;;;;;;2.92;1.40;;;;;;;9.64;58.30;93764.50;5064471;28;20020;-92
2023/12/12 10:26:58;;;;;;;3.38;1.85;;;;;;;9.71;57.81;93764.03;5063366;28;20238;-84
2023/12/12 10:29:25;;;;;;;2.95;1.73;;;;;;;9.80;57.71;93768.31;5061952;28;20037;-87
2023/12/12 10:31:51;;;;;;;3.22;1.58;;;;;;;9.75;58.47;93767.66;5063192;28;20021;-86
2023/12/12 10:34:17;;;;;;;3.40;1.90;;;;;;;9.82;58.15;93774.09;5063179;28;20048;-84
2023/12/12 10:36:46;;;;;;;6.50;1.90;;;;;;;9.83;57.92;93772.22;5063739;28;20069;-84
2023/12/12 10:39:13;;;;;;;7.15;2.28;;;;;;;9.91;57.68;93757.38;5063596;28;20032;-84
2023/12/12 10:41:38;;;;;;;20.60;4.07;;;;;;;10.08;57.46;93764.63;5062331;28;20025;-83
2023/12/12 10:44:08;;;;;;;5.18;2.15;;;;;;;10.12;57.19;93752.25;5063773;28;20055;-83
2023/12/12 10:46:37;;;;;;;9.25;2.55;;;;;;;10.12;56.74;93753.03;5063471;28;20062;-84
2023/12/12 10:49:02;;;;;;;3.67;1.83;;;;;;;10.03;57.29;93750.34;5062626;28;20031;-85
2023/12/12 10:51:28;;;;;;;2.88;1.60;;;;;;;10.04;58.30;93765.22;5063490;28;20087;-83
2023/12/12 10:53:55;;;;;;;7.05;2.17;;;;;;;10.02;58.06;93771.97;5063565;28;20025;-82
2023/12/12 10:56:39;;;;;;;4.47;1.70;;;;;;;10.01;58.02;93778.38;5063648;28;20023;-84
2023/12/12 10:59:06;;;;;;;12.23;4.45;;;;;;;9.98;58.68;93776.34;5063374;28;20049;-81
2023/12/12 11:01:33;;;;;;;6.43;3.47;;;;;;;9.96;59.18;93791.84;5063909;28;20035;-81
2023/12/12 11:04:04;;;;;;;7.97;3.00;;;;;;;9.92;59.48;93778.34;5062374;28;20231;-81
2023/12/12 11:06:32;;;;;;;9.82;3.42;;;;;;;9.87;59.82;93783.03;5063481;28;20040;-81
2023/12/12 11:08:58;;;;;;;11.45;4.32;;;;;;;9.77;59.79;93784.91;5063594;28;20041;-82
2023/12/12 11:11:25;;;;;;;6.80;3.38;;;;;;;9.69;60.25;93769.69;5063333;28;20042;-81
2023/12/12 11:13:52;;;;;;;16.60;4.78;;;;;;;9.75;60.75;93772.97;5063320;28;20028;-80
2023/12/12 11:16:19;;;;;;;23.02;7.05;;;;;;;9.72;60.42;93777.06;5062999;28;20308;-81
2023/12/12 11:18:45;;;;;;;24.88;7.13;;;;;;;9.71;60.63;93780.81;5063320;28;20041;-80
2023/12/12 11:21:42;;;;;;;16.65;6.05;;;;;;;9.59;60.87;93770.00;5063080;28;20029;-81
2023/12/12 11:24:07;;;;;;;18.35;3.22;;;;;;;9.46;61.07;93766.31;5061922;28;20029;-80